Time;durP1;ratioP1;P1;durP2;ratioP2;P2;SDS_P1;SDS_P2;PMS_P1;PMS_P2;Temp;Humidity;BMP_temperature;BMP_pressure;BME280_temperature;BME280_humidity;BME280_pressure;Samples;Min_cycle;Max_cycle;Signal;HPM_P1;HPM_P2
2024/03/09 00:01:09;;;;;;;25.42;16.00;;;;;;;3.19;100.00;93179.88;5100410;28;20496;-73
2024/03/09 00:03:37;;;;;;;22.38;16.00;;;;;;;3.05;100.00;93166.13;5101127;28;20048;-73
2024/03/09 00:06:07;;;;;;;22.85;15.00;;;;;;;3.17;100.00;93178.44;5098738;28;20081;-73
2024/03/09 00:08:34;;;;;;;21.77;15.07;;;;;;;3.24;100.00;93198.91;5102986;28;20071;-73
2024/03/09 00:11:01;;;;;;;23.52;15.43;;;;;;;3.26;100.00;93197.78;5100601;28;20071;-73
2024/03/09 00:13:29;;;;;;;21.73;14.88;;;;;;;3.26;100.00;93196.97;5103002;28;20052;-73
2024/03/09 00:15:56;;;;;;;22.48;15.20;;;;;;;3.30;100.00;93191.44;5105721;28;20087;-73
2024/03/09 00:18:25;;;;;;;23.42;15.68;;;;;;;3.31;100.00;93192.19;5099328;28;20059;-73
2024/03/09 00:20:53;;;;;;;25.73;16.13;;;;;;;3.33;100.00;93193.63;5103745;28;20055;-74
2024/03/09 00:23:22;;;;;;;24.27;16.67;;;;;;;3.41;100.00;93204.69;5102718;28;20052;-74
2024/03/09 00:25:49;;;;;;;23.38;15.65;;;;;;;3.40;100.00;93200.56;5104087;28;20055;-73
2024/03/09 00:28:16;;;;;;;22.65;16.20;;;;;;;3.15;100.00;93170.22;5105139;28;20520;-73
2024/03/09 00:30:43;;;;;;;27.27;17.50;;;;;;;3.33;100.00;93198.69;5099787;28;20126;-73
2024/03/09 00:33:10;;;;;;;24.63;16.80;;;;;;;3.14;100.00;93158.50;5103096;28;20048;-74
2024/03/09 00:35:37;;;;;;;27.20;17.13;;;;;;;3.37;100.00;93176.31;5101026;28;20048;-74
2024/03/09 00:38:05;;;;;;;23.80;15.77;;;;;;;3.47;100.00;93196.41;5104621;28;20054;-75
2024/03/09 00:40:33;;;;;;;23.75;15.85;;;;;;;3.45;100.00;93181.34;5103537;28;20127;-75
2024/03/09 00:43:06;;;;;;;22.50;16.45;;;;;;;3.56;100.00;93197.19;5104636;28;20051;-75
2024/03/09 00:45:33;;;;;;;23.50;15.60;;;;;;;3.53;100.00;93185.59;5096697;28;20520;-75
2024/03/09 00:48:00;;;;;;;23.08;17.80;;;;;;;3.52;100.00;93185.75;5101820;28;20044;-75
2024/03/09 00:50:27;;;;;;;23.90;16.73;;;;;;;3.44;100.00;93159.47;5101425;28;20793;-74
2024/03/09 00:52:54;;;;;;;21.88;15.48;;;;;;;3.61;100.00;93187.28;5103328;28;20044;-74
2024/03/09 00:55:22;;;;;;;22.65;16.67;;;;;;;3.62;100.00;93181.28;5097777;28;20043;-74
2024/03/09 00:57:51;;;;;;;22.08;15.98;;;;;;;3.66;100.00;93182.50;5103793;28;20158;-74
2024/03/09 01:00:19;;;;;;;22.50;16.85;;;;;;;3.73;100.00;93185.97;5103207;28;20832;-75
2024/03/09 01:02:49;;;;;;;24.35;15.38;;;;;;;3.61;100.00;93167.75;5096579;28;20051;-74
2024/03/09 01:05:19;;;;;;;23.65;16.20;;;;;;;3.75;100.00;93183.25;5100073;28;20051;-74
2024/03/09 01:07:47;;;;;;;24.73;17.13;;;;;;;3.80;100.00;93182.75;5099101;28;20126;-74
2024/03/09 01:10:14;;;;;;;24.05;16.73;;;;;;;3.80;100.00;93170.06;5102962;28;20050;-74
2024/03/09 01:12:40;;;;;;;24.05;17.33;;;;;;;3.80;100.00;93167.50;5099975;28;20047;-75
2024/03/09 01:15:10;;;;;;;33.72;20.75;;;;;;;3.82;100.00;93157.97;5102985;28;20050;-74
2024/03/09 01:17:38;;;;;;;26.08;19.42;;;;;;;3.70;100.00;93147.41;5097101;28;20505;-74
2024/03/09 01:20:07;;;;;;;23.35;16.83;;;;;;;3.72;100.00;93153.09;5102512;28;20126;-74
2024/03/09 01:22:34;;;;;;;27.10;16.90;;;;;;;3.00;100.00;93048.31;5103703;28;20055;-75
2024/03/09 01:25:01;;;;;;;22.65;15.25;;;;;;;3.69;100.00;93159.31;5098059;28;20130;-75
2024/03/09 01:27:28;;;;;;;21.13;14.55;;;;;;;3.67;100.00;93173.13;5100519;28;20079;-75
2024/03/09 01:29:59;;;;;;;23.13;15.15;;;;;;;3.66;100.00;93161.41;5096879;28;20059;-75
2024/03/09 01:32:28;;;;;;;18.83;14.00;;;;;;;3.64;100.00;93155.69;5103936;28;20100;-74
2024/03/09 01:34:56;;;;;;;20.27;14.52;;;;;;;3.79;100.00;93156.53;5102780;28;20052;-74
2024/03/09 01:37:23;;;;;;;21.65;14.30;;;;;;;3.77;100.00;93155.94;5098924;28;20051;-74
2024/03/09 01:39:50;;;;;;;21.17;14.20;;;;;;;3.76;100.00;93156.09;5103248;28;20582;-74
2024/03/09 01:42:18;;;;;;;17.90;13.10;;;;;;;3.79;100.00;93148.91;5103379;28;20046;-74
2024/03/09 01:44:48;;;;;;;20.25;13.55;;;;;;;3.82;100.00;93148.59;5097704;28;20056;-74
2024/03/09 01:47:16;;;;;;;20.65;13.75;;;;;;;3.78;100.00;93157.50;5101062;28;20055;-75
2024/03/09 01:49:45;;;;;;;19.67;14.65;;;;;;;3.80;100.00;93152.25;5100059;28;20039;-74
2024/03/09 01:52:14;;;;;;;21.42;15.27;;;;;;;3.61;100.00;93155.06;5099137;28;20043;-75
2024/03/09 01:54:42;;;;;;;21.35;14.38;;;;;;;3.64;100.00;93145.53;5102920;28;20047;-73
2024/03/09 01:57:13;;;;;;;21.77;16.45;;;;;;;3.65;100.00;93142.03;5098712;28;20075;-73
2024/03/09 01:59:41;;;;;;;23.00;17.42;;;;;;;3.61;100.00;93141.56;5102796;28;20128;-73
2024/03/09 02:02:09;;;;;;;23.05;17.25;;;;;;;3.45;100.00;93110.25;5096025;28;20043;-74
2024/03/09 02:04:37;;;;;;;19.60;14.32;;;;;;;3.55;100.00;93152.41;5102255;28;20428;-74
2024/03/09 02:07:06;;;;;;;23.92;15.25;;;;;;;3.56;100.00;93136.22;5102659;28;20088;-74
2024/03/09 02:09:34;;;;;;;20.83;15.18;;;;;;;3.57;100.00;93145.41;5096363;28;20082;-74
2024/03/09 02:12:05;;;;;;;21.17;14.55;;;;;;;3.57;100.00;93132.72;5103013;28;20054;-73
2024/03/09 02:14:33;;;;;;;18.17;13.43;;;;;;;3.60;100.00;93134.91;5101150;28;20648;-73
2024/03/09 02:17:07;;;;;;;23.25;15.57;;;;;;;3.57;100.00;93145.41;5099046;28;20062;-73
2024/03/09 02:19:34;;;;;;;19.23;14.90;;;;;;;3.60;100.00;93143.34;5095883;28;20035;-74
2024/03/09 02:22:01;;;;;;;21.17;15.82;;;;;;;3.56;100.00;93144.63;5098987;28;20086;-74
2024/03/09 02:24:34;;;;;;;21.25;16.00;;;;;;;3.36;100.00;93115.53;5101875;28;20051;-74
2024/03/09 02:27:04;;;;;;;21.10;15.88;;;;;;;3.54;100.00;93151.63;5099659;28;20461;-73
2024/03/09 02:29:31;;;;;;;21.70;15.65;;;;;;;3.40;100.00;93129.47;5095930;28;20504;-73
2024/03/09 02:31:58;;;;;;;20.20;15.70;;;;;;;3.43;100.00;93146.94;5099784;28;20135;-73
2024/03/09 02:34:25;;;;;;;29.52;20.88;;;;;;;3.48;100.00;93154.84;5102528;28;20044;-73
2024/03/09 02:36:52;;;;;;;28.27;20.58;;;;;;;3.47;100.00;93151.50;5102342;28;20906;-74
2024/03/09 02:39:20;;;;;;;103.20;50.92;;;;;;;3.54;100.00;93150.81;5093235;28;20051;-74
2024/03/09 02:41:47;;;;;;;25.35;17.98;;;;;;;3.59;100.00;93143.50;5098618;28;20542;-74
2024/03/09 02:44:15;;;;;;;44.10;26.67;;;;;;;3.57;100.00;93143.66;5099400;28;20059;-73
2024/03/09 02:46:42;;;;;;;28.75;19.73;;;;;;;3.63;100.00;93139.66;5098236;28;20083;-74
2024/03/09 02:49:09;;;;;;;29.73;21.08;;;;;;;3.52;100.00;93109.56;5099588;28;20557;-74
2024/03/09 02:51:36;;;;;;;29.77;21.17;;;;;;;3.68;100.00;93131.53;5108676;28;20130;-74
2024/03/09 02:54:04;;;;;;;25.05;18.27;;;;;;;3.74;100.00;93130.84;5106061;28;20052;-74
2024/03/09 02:56:32;;;;;;;24.83;16.25;;;;;;;3.59;100.00;93103.66;5109949;28;20469;-74
2024/03/09 02:58:59;;;;;;;21.67;15.57;;;;;;;3.78;100.00;93126.22;5102707;28;20040;-74
2024/03/09 03:01:28;;;;;;;17.30;12.70;;;;;;;3.76;100.00;93130.69;5106343;28;20074;-74
2024/03/09 03:03:58;;;;;;;19.17;13.27;;;;;;;3.55;100.00;93096.53;5103379;28;20497;-74
2024/03/09 03:06:27;;;;;;;16.20;11.90;;;;;;;3.79;100.00;93135.44;5109952;28;20059;-74
2024/03/09 03:08:58;;;;;;;15.77;11.27;;;;;;;3.68;100.00;93118.81;5106396;28;20067;-74
2024/03/09 03:11:27;;;;;;;15.80;12.65;;;;;;;3.85;100.00;93127.91;5110148;28;20062;-74
2024/03/09 03:13:55;;;;;;;16.13;12.45;;;;;;;3.92;100.00;93124.69;5110423;28;20048;-74
2024/03/09 03:16:27;;;;;;;14.63;11.48;;;;;;;3.93;100.00;93119.44;5106337;28;20138;-74
2024/03/09 03:18:56;;;;;;;14.13;11.07;;;;;;;3.98;100.00;93124.81;5104548;28;20052;-74
2024/03/09 03:21:24;;;;;;;15.55;11.32;;;;;;;3.57;100.00;93071.75;5109639;28;20052;-74
2024/03/09 03:23:50;;;;;;;13.95;11.15;;;;;;;3.93;100.00;93127.06;5103577;28;20061;-74
2024/03/09 03:26:19;;;;;;;14.75;10.98;;;;;;;3.97;100.00;93128.31;5109670;28;20568;-74
2024/03/09 03:28:47;;;;;;;18.13;12.45;;;;;;;3.95;100.00;93134.53;5104965;28;20043;-74
2024/03/09 03:31:16;;;;;;;16.40;11.00;;;;;;;3.77;100.00;93106.84;5108494;28;21002;-74
2024/03/09 03:33:44;;;;;;;15.60;12.40;;;;;;;3.95;100.00;93135.31;5105199;28;20048;-74
2024/03/09 03:36:15;;;;;;;20.23;14.85;;;;;;;3.99;100.00;93138.31;5109879;28;20044;-74
2024/03/09 03:38:42;;;;;;;18.55;13.77;;;;;;;4.03;100.00;93138.75;5105184;28;20079;-74
2024/03/09 03:41:10;;;;;;;18.67;13.52;;;;;;;3.57;100.00;93084.47;5105412;28;20044;-74
2024/03/09 03:43:38;;;;;;;19.35;13.57;;;;;;;3.83;100.00;93139.19;5107780;28;20079;-74
2024/03/09 03:46:07;;;;;;;16.90;12.55;;;;;;;3.82;100.00;93135.88;5106363;28;20043;-73
2024/03/09 03:48:34;;;;;;;23.00;14.70;;;;;;;3.82;100.00;93137.63;5096919;28;20051;-73
2024/03/09 03:51:01;;;;;;;20.55;15.65;;;;;;;3.81;100.00;93134.31;5108323;28;20052;-74
2024/03/09 03:53:30;;;;;;;21.95;16.73;;;;;;;3.69;100.00;93117.88;5106964;28;20519;-74
2024/03/09 03:55:58;;;;;;;23.70;17.73;;;;;;;3.68;100.00;93129.78;5107335;28;20043;-74
2024/03/09 03:58:26;;;;;;;25.55;18.30;;;;;;;3.65;100.00;93136.97;5108645;28;20845;-74
2024/03/09 04:00:54;;;;;;;25.58;17.27;;;;;;;3.78;100.00;93131.28;5109149;28;20048;-74
2024/03/09 04:03:24;;;;;;;26.70;19.42;;;;;;;3.83;100.00;93126.50;5101496;28;20048;-74
2024/03/09 04:05:53;;;;;;;27.63;20.27;;;;;;;3.77;100.00;93112.75;5107880;28;20047;-74
2024/03/09 04:08:21;;;;;;;31.27;19.00;;;;;;;3.98;100.00;93127.34;5103749;28;20216;-73
2024/03/09 04:10:50;;;;;;;20.85;16.10;;;;;;;3.95;100.00;93117.53;5108007;28;20048;-73
2024/03/09 04:13:20;;;;;;;23.65;16.67;;;;;;;4.04;100.00;93133.50;5108710;28;20509;-73
2024/03/09 04:15:46;;;;;;;19.70;14.93;;;;;;;4.05;100.00;93124.13;5108410;28;20055;-73
2024/03/09 04:18:13;;;;;;;20.05;13.90;;;;;;;4.05;100.00;93130.00;5100718;28;20051;-73
2024/03/09 04:20:40;;;;;;;21.35;14.23;;;;;;;4.07;100.00;93129.84;5108620;28;20043;-73
2024/03/09 04:23:08;;;;;;;16.55;12.85;;;;;;;4.05;100.00;93134.28;5108968;28;20058;-73
2024/03/09 04:25:38;;;;;;;19.40;12.90;;;;;;;3.98;100.00;93131.66;5108640;28;20048;-73
2024/03/09 04:28:07;;;;;;;19.55;13.35;;;;;;;3.89;100.00;93115.66;5101320;28;20058;-73
2024/03/09 04:30:34;;;;;;;15.60;12.80;;;;;;;4.01;100.00;93127.00;5108060;28;20119;-73
2024/03/09 04:33:04;;;;;;;19.20;13.77;;;;;;;3.97;100.00;93128.31;5106185;28;20065;-73
2024/03/09 04:35:31;;;;;;;19.17;13.00;;;;;;;3.99;100.00;93130.69;5105448;28;21035;-72
2024/03/09 04:37:58;;;;;;;15.25;12.18;;;;;;;4.00;100.00;93129.72;5103972;28;20043;-73
2024/03/09 04:40:27;;;;;;;22.50;13.57;;;;;;;4.00;100.00;93127.97;5105126;28;20054;-73
2024/03/09 04:42:55;;;;;;;20.65;14.20;;;;;;;4.01;100.00;93127.00;5108722;28;20055;-74
2024/03/09 04:45:25;;;;;;;21.15;14.50;;;;;;;4.07;100.00;93127.28;5107717;28;20052;-73
2024/03/09 04:47:52;;;;;;;23.00;15.93;;;;;;;3.83;100.00;93091.72;5100857;28;20067;-73
2024/03/09 04:50:19;;;;;;;19.83;14.70;;;;;;;4.10;100.00;93125.19;5102445;28;20050;-73
2024/03/09 04:52:48;;;;;;;23.45;16.63;;;;;;;4.16;100.00;93125.47;5107901;28;20054;-73
2024/03/09 04:55:16;;;;;;;28.52;18.17;;;;;;;4.16;100.00;93131.31;5103069;28;20047;-73
2024/03/09 04:57:43;;;;;;;23.55;17.45;;;;;;;4.21;100.00;93134.16;5106095;28;20048;-73
2024/03/09 05:00:14;;;;;;;25.40;17.63;;;;;;;4.19;100.00;93127.66;5103893;28;20048;-73
2024/03/09 05:02:45;;;;;;;24.83;18.30;;;;;;;4.16;100.00;93133.88;5106440;28;20048;-73
2024/03/09 05:05:12;;;;;;;22.67;16.95;;;;;;;4.17;100.00;93125.28;5100826;28;20607;-73
2024/03/09 05:07:43;;;;;;;24.08;17.63;;;;;;;4.06;100.00;93134.13;5107038;28;20116;-73
2024/03/09 05:10:11;;;;;;;25.55;18.95;;;;;;;3.91;100.00;93088.34;5106678;28;20097;-74
2024/03/09 05:12:39;;;;;;;27.67;19.30;;;;;;;4.24;100.00;93128.72;5104503;28;20048;-73
2024/03/09 05:15:06;;;;;;;26.83;19.95;;;;;;;4.34;100.00;93132.75;5101333;28;20062;-73
2024/03/09 05:17:34;;;;;;;31.02;20.63;;;;;;;4.43;100.00;93133.50;5098146;28;20048;-73
2024/03/09 05:20:11;;;;;;;27.48;20.33;;;;;;;4.48;100.00;93126.13;5103501;28;20048;-73
2024/03/09 05:22:38;;;;;;;25.90;19.30;;;;;;;4.45;100.00;93129.03;5098688;28;20052;-73
2024/03/09 05:25:10;;;;;;;27.98;20.10;;;;;;;4.33;100.00;93136.28;5106200;28;20052;-72
2024/03/09 05:27:41;;;;;;;27.08;18.48;;;;;;;4.24;100.00;93130.47;5106652;28;20040;-72
2024/03/09 05:30:10;;;;;;;27.75;19.48;;;;;;;4.19;100.00;93128.47;5089937;28;20203;-72
2024/03/09 05:32:37;;;;;;;31.88;21.30;;;;;;;4.15;100.00;93124.66;5092711;28;20075;-73
2024/03/09 05:35:11;;;;;;;28.95;20.30;;;;;;;4.15;100.00;93132.28;5092378;28;20056;-73
2024/03/09 05:37:39;;;;;;;29.08;19.92;;;;;;;4.19;100.00;93125.91;5089764;28;20056;-73
2024/03/09 05:40:10;;;;;;;29.70;21.80;;;;;;;4.34;100.00;93135.31;5089033;28;20044;-73
2024/03/09 05:42:37;;;;;;;36.17;24.77;;;;;;;3.92;100.00;93134.84;5090497;28;20051;-73
2024/03/09 05:45:05;;;;;;;37.67;25.80;;;;;;;3.99;100.00;93136.53;5095414;28;20039;-72
2024/03/09 05:47:32;;;;;;;32.97;23.58;;;;;;;3.69;100.00;93130.56;5087826;28;20052;-73
2024/03/09 05:49:58;;;;;;;32.63;23.10;;;;;;;3.83;100.00;93134.94;5092628;28;20051;-73
2024/03/09 05:52:27;;;;;;;30.48;21.88;;;;;;;4.01;100.00;93129.56;5086916;28;20050;-73
2024/03/09 05:54:54;;;;;;;32.05;22.50;;;;;;;4.00;100.00;93138.16;5098335;28;20053;-73
2024/03/09 05:57:22;;;;;;;31.90;21.55;;;;;;;4.04;100.00;93142.88;5091909;28;20123;-72
2024/03/09 05:59:50;;;;;;;32.92;22.25;;;;;;;3.74;100.00;93134.19;5094134;28;20127;-73
2024/03/09 06:02:17;;;;;;;33.78;23.02;;;;;;;3.93;100.00;93144.84;5094447;28;20493;-72
2024/03/09 06:04:44;;;;;;;37.22;23.13;;;;;;;4.13;100.00;93152.03;5089260;28;20052;-72
2024/03/09 06:07:11;;;;;;;33.70;21.27;;;;;;;4.28;100.00;93150.31;5094260;28;20047;-72
2024/03/09 06:09:39;;;;;;;30.00;18.38;;;;;;;3.93;100.00;93141.53;5093352;28;20598;-72
2024/03/09 06:12:06;;;;;;;31.85;20.42;;;;;;;4.04;100.00;93153.03;5100557;28;20053;-72
2024/03/09 06:14:33;;;;;;;33.65;21.42;;;;;;;4.05;100.00;93145.25;5090518;28;20053;-72
2024/03/09 06:17:00;;;;;;;34.40;21.73;;;;;;;3.88;100.00;93155.53;5090339;28;20040;-72
2024/03/09 06:19:27;;;;;;;39.28;22.38;;;;;;;4.11;100.00;93159.81;5090395;28;20612;-73
2024/03/09 06:21:54;;;;;;;36.33;21.88;;;;;;;4.24;100.00;93158.44;5093532;28;20422;-73
2024/03/09 06:24:21;;;;;;;35.22;22.50;;;;;;;4.23;100.00;93167.84;5093719;28;20152;-73
2024/03/09 06:26:51;;;;;;;35.17;23.33;;;;;;;4.01;100.00;93174.50;5090601;28;20044;-73
2024/03/09 06:29:18;;;;;;;43.53;26.73;;;;;;;4.05;100.00;93163.03;5092547;28;20047;-73
2024/03/09 06:31:45;;;;;;;36.88;24.60;;;;;;;4.33;100.00;93175.22;5088824;28;20779;-73
2024/03/09 06:34:11;;;;;;;40.95;26.30;;;;;;;4.28;100.00;93177.47;5095814;28;20159;-73
2024/03/09 06:36:40;;;;;;;41.75;26.70;;;;;;;4.06;100.00;93169.69;5090906;28;20050;-73
2024/03/09 06:39:07;;;;;;;42.70;27.02;;;;;;;3.92;100.00;93172.97;5088419;28;20157;-73
2024/03/09 06:41:33;;;;;;;45.85;27.33;;;;;;;3.97;100.00;93176.59;5091528;28;20078;-73
2024/03/09 06:44:02;;;;;;;49.28;28.63;;;;;;;4.04;100.00;93178.47;5093440;28;20051;-73
2024/03/09 06:46:29;;;;;;;47.75;28.38;;;;;;;3.90;100.00;93140.13;5089519;28;20097;-73
2024/03/09 06:48:57;;;;;;;42.90;25.65;;;;;;;4.26;100.00;93177.66;5092132;28;20128;-73
2024/03/09 06:51:24;;;;;;;44.28;25.88;;;;;;;4.53;100.00;93182.34;5090544;28;20048;-74
2024/03/09 06:53:51;;;;;;;55.33;29.38;;;;;;;4.40;100.00;93165.16;5095236;28;20651;-73
2024/03/09 06:56:18;;;;;;;59.17;32.85;;;;;;;4.64;100.00;93179.38;5088309;28;20500;-73
2024/03/09 06:58:47;;;;;;;57.55;32.33;;;;;;;4.90;100.00;93183.28;5088281;28;20043;-73
2024/03/09 07:01:20;;;;;;;63.17;36.05;;;;;;;4.88;100.00;93192.06;5088449;28;20044;-73
2024/03/09 07:03:47;;;;;;;52.08;26.15;;;;;;;4.92;100.00;93190.75;5088550;28;20126;-73
2024/03/09 07:06:14;;;;;;;56.60;28.63;;;;;;;5.00;100.00;93198.28;5089944;28;20074;-73
2024/03/09 07:08:42;;;;;;;58.92;29.65;;;;;;;4.82;100.00;93188.47;5093456;28;20036;-73
2024/03/09 07:11:10;;;;;;;54.97;27.35;;;;;;;5.13;100.00;93191.81;5090391;28;20048;-73
2024/03/09 07:13:40;;;;;;;59.35;29.35;;;;;;;5.00;100.00;93185.56;5094499;28;20444;-73
2024/03/09 07:16:07;;;;;;;58.38;26.65;;;;;;;4.74;100.00;93180.91;5095290;28;20039;-73
2024/03/09 07:18:36;;;;;;;54.63;28.45;;;;;;;4.95;100.00;93187.84;5092443;28;20048;-73
2024/03/09 07:21:05;;;;;;;69.57;32.83;;;;;;;5.07;100.00;93194.09;5093701;28;20052;-73
2024/03/09 07:23:32;;;;;;;65.00;31.85;;;;;;;5.20;100.00;93190.91;5092532;28;20160;-73
2024/03/09 07:25:59;;;;;;;60.10;29.98;;;;;;;5.28;100.00;93194.34;5093334;28;20075;-73
2024/03/09 07:28:26;;;;;;;66.20;29.40;;;;;;;5.45;100.00;93192.38;5088454;28;20051;-71
2024/03/09 07:30:54;;;;;;;67.55;29.55;;;;;;;5.42;100.00;93193.50;5092751;28;21088;-71
2024/03/09 07:33:21;;;;;;;63.83;29.15;;;;;;;5.69;100.00;93196.38;5093249;28;20098;-72
2024/03/09 07:35:51;;;;;;;66.05;31.40;;;;;;;5.78;100.00;93191.19;5092484;28;20062;-72
2024/03/09 07:38:18;;;;;;;57.17;32.30;;;;;;;5.91;100.00;93187.94;5102222;28;20098;-73
2024/03/09 07:40:45;;;;;;;66.35;33.20;;;;;;;6.04;100.00;93197.53;5095406;28;20050;-72
2024/03/09 07:43:13;;;;;;;62.65;32.70;;;;;;;6.07;100.00;93192.84;5091247;28;20052;-72
2024/03/09 07:45:40;;;;;;;34.67;21.88;;;;;;;6.12;100.00;93187.22;5095617;28;20039;-72
2024/03/09 07:48:08;;;;;;;33.05;21.13;;;;;;;6.19;100.00;93194.91;5098514;28;20044;-71
2024/03/09 07:50:35;;;;;;;32.30;19.17;;;;;;;6.28;100.00;93186.97;5097380;28;20093;-72
2024/03/09 07:53:06;;;;;;;24.30;15.85;;;;;;;6.33;100.00;93183.84;5093636;28;20051;-72
2024/03/09 07:55:34;;;;;;;25.55;14.68;;;;;;;6.24;100.00;93178.09;5093835;28;20429;-72
2024/03/09 07:58:01;;;;;;;22.20;14.98;;;;;;;6.50;100.00;93179.28;5095172;28;20131;-72
2024/03/09 08:00:28;;;;;;;24.67;16.10;;;;;;;6.56;100.00;93193.06;5089247;28;20516;-72
2024/03/09 08:02:59;;;;;;;20.52;13.93;;;;;;;6.77;100.00;93199.88;5092127;28;20032;-72
2024/03/09 08:05:28;;;;;;;18.27;12.82;;;;;;;6.87;100.00;93203.88;5100508;28;20506;-73
2024/03/09 08:07:56;;;;;;;24.60;16.50;;;;;;;6.68;100.00;93176.25;5092539;28;20044;-72
2024/03/09 08:10:26;;;;;;;29.50;16.98;;;;;;;6.93;100.00;93208.22;5093152;28;20055;-72
2024/03/09 08:12:56;;;;;;;31.73;19.40;;;;;;;7.22;100.00;93211.53;5093250;28;20051;-72
2024/03/09 08:15:24;;;;;;;24.08;18.15;;;;;;;7.03;100.00;93202.81;5090532;28;20206;-72
2024/03/09 08:17:54;;;;;;;23.58;17.33;;;;;;;7.05;100.00;93218.72;5093752;28;20464;-71
2024/03/09 08:20:22;;;;;;;21.00;14.65;;;;;;;7.29;100.00;93217.50;5095773;28;20158;-71
2024/03/09 08:22:49;;;;;;;20.80;15.95;;;;;;;7.32;100.00;93212.00;5095322;28;20082;-72
2024/03/09 08:25:17;;;;;;;20.50;14.52;;;;;;;7.25;100.00;93215.47;5097021;28;20050;-72
2024/03/09 08:27:47;;;;;;;27.80;15.93;;;;;;;7.39;100.00;93217.13;5097801;28;20500;-72
2024/03/09 08:30:16;;;;;;;24.52;16.10;;;;;;;7.42;100.00;93214.22;5093362;28;20052;-71
2024/03/09 08:32:44;;;;;;;18.90;13.98;;;;;;;7.45;100.00;93215.59;5094325;28;20117;-71
2024/03/09 08:35:12;;;;;;;20.85;14.15;;;;;;;7.52;100.00;93216.41;5092504;28;20699;-72
2024/03/09 08:37:41;;;;;;;21.98;15.43;;;;;;;7.53;100.00;93204.41;5099114;28;20505;-72
2024/03/09 08:40:09;;;;;;;21.10;14.43;;;;;;;7.68;100.00;93222.19;5097212;28;20144;-72
2024/03/09 08:42:36;;;;;;;20.48;14.10;;;;;;;7.73;100.00;93212.19;5091966;28;20043;-72
2024/03/09 08:45:08;;;;;;;18.27;12.40;;;;;;;7.65;100.00;93189.31;5096903;28;20052;-72
2024/03/09 08:47:35;;;;;;;18.55;13.77;;;;;;;7.91;100.00;93223.63;5103108;28;20130;-72
2024/03/09 08:50:02;;;;;;;30.95;20.20;;;;;;;8.04;100.00;93212.66;5095066;28;20052;-72
2024/03/09 08:52:31;;;;;;;38.83;27.83;;;;;;;8.03;100.00;93216.97;5089793;28;20080;-72
2024/03/09 08:54:58;;;;;;;24.15;15.70;;;;;;;8.01;100.00;93217.16;5089806;28;20404;-73
2024/03/09 08:57:25;;;;;;;28.63;19.48;;;;;;;8.06;100.00;93219.13;5091068;28;20044;-73
2024/03/09 08:59:59;;;;;;;22.80;16.27;;;;;;;8.22;100.00;93212.06;5097133;28;20052;-72
2024/03/09 09:02:27;;;;;;;19.75;13.35;;;;;;;8.27;100.00;93212.28;5097045;28;20055;-72
2024/03/09 09:04:54;;;;;;;22.35;14.40;;;;;;;8.26;100.00;93203.84;5089597;28;20052;-72
2024/03/09 09:07:21;;;;;;;18.15;13.07;;;;;;;8.37;100.00;93211.88;5090635;28;20135;-73
2024/03/09 09:09:48;;;;;;;15.77;11.65;;;;;;;8.44;100.00;93210.16;5093146;28;20050;-72
2024/03/09 09:12:17;;;;;;;25.88;18.98;;;;;;;8.55;100.00;93216.47;5091673;28;20050;-72
2024/03/09 09:14:44;;;;;;;29.48;21.02;;;;;;;8.54;100.00;93207.22;5093895;28;20179;-72
2024/03/09 09:17:11;;;;;;;20.67;15.55;;;;;;;8.71;100.00;93206.81;5091670;28;20048;-72
2024/03/09 09:19:40;;;;;;;18.40;13.07;;;;;;;8.79;100.00;93201.47;5094750;28;20040;-72
2024/03/09 09:22:08;;;;;;;17.58;11.38;;;;;;;8.55;100.00;93186.53;5090273;28;20048;-72
2024/03/09 09:24:36;;;;;;;19.15;12.18;;;;;;;8.84;100.00;93204.25;5088796;28;20515;-72
2024/03/09 09:27:03;;;;;;;17.95;12.38;;;;;;;8.88;100.00;93204.66;5092558;28;20054;-72
2024/03/09 09:29:29;;;;;;;24.30;14.27;;;;;;;8.92;100.00;93193.81;5089582;28;20554;-71
2024/03/09 09:31:56;;;;;;;19.08;13.82;;;;;;;8.93;100.00;93197.94;5094451;28;20168;-71
2024/03/09 09:34:28;;;;;;;24.98;16.70;;;;;;;8.66;100.00;93171.56;5092494;28;20044;-72
2024/03/09 09:36:56;;;;;;;24.63;18.10;;;;;;;8.64;100.00;93164.09;5099705;28;20044;-72
2024/03/09 09:39:29;;;;;;;16.50;12.23;;;;;;;9.16;100.00;93199.28;5093237;28;20048;-71
2024/03/09 09:41:58;;;;;;;13.50;11.15;;;;;;;9.32;100.00;93198.06;5096474;28;20079;-72
2024/03/09 09:44:26;;;;;;;17.00;13.32;;;;;;;9.33;100.00;93181.69;5089721;28;20051;-72
2024/03/09 09:46:54;;;;;;;15.38;11.35;;;;;;;9.58;100.00;93204.06;5091256;28;20149;-73
2024/03/09 09:49:23;;;;;;;13.13;9.40;;;;;;;9.78;98.81;93197.28;5091082;28;20058;-72
2024/03/09 09:51:52;;;;;;;19.42;12.43;;;;;;;9.96;98.57;93199.94;5088665;28;20048;-72
2024/03/09 09:54:23;;;;;;;16.33;11.00;;;;;;;10.07;96.28;93195.16;5089372;28;20051;-72
2024/03/09 09:56:52;;;;;;;13.43;8.55;;;;;;;10.17;96.30;93192.94;5089551;28;20047;-72
2024/03/09 09:59:19;;;;;;;14.05;9.50;;;;;;;10.24;95.88;93200.59;5090779;28;20086;-72
2024/03/09 10:01:46;;;;;;;14.02;9.43;;;;;;;10.19;94.89;93190.97;5088660;28;20495;-72
2024/03/09 10:04:13;;;;;;;10.88;8.30;;;;;;;10.32;93.23;93200.34;5089679;28;20508;-73
2024/03/09 10:06:40;;;;;;;32.20;8.52;;;;;;;10.47;93.24;93196.72;5087787;28;20066;-72
2024/03/09 10:09:07;;;;;;;20.77;12.63;;;;;;;10.62;93.20;93192.06;5089951;28;20056;-73
2024/03/09 10:11:35;;;;;;;25.05;12.40;;;;;;;10.77;92.52;93201.22;5090044;28;20083;-72
2024/03/09 10:14:04;;;;;;;25.23;18.50;;;;;;;10.89;90.74;93196.97;5095017;28;20085;-72
2024/03/09 10:16:39;;;;;;;29.02;21.15;;;;;;;10.98;90.86;93196.69;5087562;28;20355;-72
2024/03/09 10:19:08;;;;;;;18.20;13.30;;;;;;;11.08;89.21;93197.78;5091406;28;20044;-73
2024/03/09 10:21:38;;;;;;;16.10;12.18;;;;;;;11.07;88.99;93183.34;5088127;28;20054;-73
2024/03/09 10:24:07;;;;;;;17.52;12.52;;;;;;;11.11;88.76;93188.84;5095716;28;20047;-72
2024/03/09 10:26:37;;;;;;;23.08;13.68;;;;;;;11.13;87.72;93186.88;5089954;28;20468;-73
2024/03/09 10:29:07;;;;;;;20.67;11.38;;;;;;;11.13;87.61;93181.72;5088075;28;20062;-72
2024/03/09 10:31:35;;;;;;;20.63;10.65;;;;;;;11.23;87.55;93181.22;5087627;28;20067;-72
2024/03/09 10:34:04;;;;;;;44.75;23.88;;;;;;;11.17;86.59;93184.66;5092029;28;20505;-72
2024/03/09 10:36:32;;;;;;;24.88;14.07;;;;;;;11.21;86.28;93185.81;5093687;28;20636;-73
2024/03/09 10:39:01;;;;;;;46.05;23.23;;;;;;;11.35;86.16;93183.88;5092848;28;20086;-73
2024/03/09 10:41:28;;;;;;;17.60;10.20;;;;;;;11.40;86.19;93175.50;5088961;28;20564;-73
2024/03/09 10:43:57;;;;;;;49.40;24.42;;;;;;;11.39;86.27;93171.38;5088739;28;20051;-72
2024/03/09 10:46:26;;;;;;;26.15;13.57;;;;;;;11.47;84.71;93178.78;5089822;28;20964;-72
2024/03/09 10:48:55;;;;;;;48.15;22.27;;;;;;;11.51;84.79;93179.94;5089439;28;20037;-72
2024/03/09 10:51:37;;;;;;;52.08;25.83;;;;;;;11.60;83.80;93185.56;5090510;28;20091;-72
2024/03/09 10:54:18;;;;;;;61.05;28.38;;;;;;;11.38;83.09;93180.88;5096901;28;20044;-72
2024/03/09 10:56:51;;;;;;;74.72;37.30;;;;;;;11.29;84.02;93172.66;5088356;28;20067;-72
2024/03/09 10:59:21;;;;;;;17.83;9.18;;;;;;;11.26;83.84;93160.25;5087416;28;20044;-72
2024/03/09 11:01:50;;;;;;;11.15;6.65;;;;;;;11.33;84.63;93168.66;5090927;28;20495;-73
2024/03/09 11:04:19;;;;;;;150.32;68.75;;;;;;;11.37;83.17;93169.00;5094410;28;20274;-72
2024/03/09 11:06:47;;;;;;;59.60;30.33;;;;;;;11.44;83.67;93168.94;5090248;28;20549;-72
2024/03/09 11:09:16;;;;;;;21.27;11.93;;;;;;;11.46;83.42;93152.28;5093410;28;20052;-73
2024/03/09 11:11:45;;;;;;;12.65;8.35;;;;;;;11.58;83.09;93154.91;5095237;28;20046;-72
2024/03/09 11:14:15;;;;;;;8.27;5.57;;;;;;;11.57;82.36;93152.56;5091739;28;20056;-73
2024/03/09 11:16:51;;;;;;;9.20;5.95;;;;;;;11.60;82.58;93139.25;5099030;28;20070;-73
2024/03/09 11:19:18;;;;;;;8.95;5.75;;;;;;;11.49;81.66;93141.56;5092500;28;20590;-73
2024/03/09 11:21:48;;;;;;;11.07;5.30;;;;;;;11.66;81.96;93129.91;5092800;28;20052;-72